Time;durP1;ratioP1;P1;durP2;ratioP2;P2;SDS_P1;SDS_P2;PMS_P1;PMS_P2;Temp;Humidity;BMP_temperature;BMP_pressure;BME280_temperature;BME280_humidity;BME280_pressure;Samples;Min_cycle;Max_cycle;Signal;HPM_P1;HPM_P2
2023/12/11 00:01:54;;;;;;;4.47;1.50;;;;;;;9.81;51.71;99689.47;4960581;28;20085;-73
2023/12/11 00:04:22;;;;;;;9.38;2.60;;;;;;;9.81;51.63;99690.34;4965250;28;20051;-73
2023/12/11 00:06:50;;;;;;;11.15;2.65;;;;;;;9.80;52.17;99690.50;4967367;28;20047;-73
2023/12/11 00:09:18;;;;;;;7.45;2.10;;;;;;;9.81;52.16;99676.69;4986730;28;20046;-73
2023/12/11 00:11:46;;;;;;;12.07;2.25;;;;;;;9.80;52.18;99683.16;4985515;28;20101;-72
2023/12/11 00:14:14;;;;;;;7.32;2.08;;;;;;;9.79;51.78;99675.97;4972338;28;20039;-73
2023/12/11 00:16:45;;;;;;;8.85;2.05;;;;;;;9.81;51.79;99692.22;4982542;28;20078;-74
2023/12/11 00:19:13;;;;;;;6.38;1.80;;;;;;;9.80;51.87;99679.56;4976457;28;20046;-73
2023/12/11 00:21:41;;;;;;;12.45;2.60;;;;;;;9.79;52.02;99686.03;4975424;28;20062;-73
2023/12/11 00:24:09;;;;;;;6.97;2.22;;;;;;;9.79;52.13;99686.03;4965724;28;20132;-73
2023/12/11 00:26:37;;;;;;;8.65;2.40;;;;;;;9.79;51.99;99684.16;4983474;28;20105;-73
2023/12/11 00:29:05;;;;;;;8.45;2.35;;;;;;;9.79;51.68;99691.50;4975651;28;20047;-73
2023/12/11 00:31:33;;;;;;;8.82;2.00;;;;;;;9.79;51.95;99694.22;4981800;28;20062;-73
2023/12/11 00:34:03;;;;;;;8.32;2.75;;;;;;;9.80;52.15;99682.28;4973815;28;20094;-73
2023/12/11 00:36:31;;;;;;;6.43;2.05;;;;;;;9.78;52.05;99681.59;4973949;28;20042;-73
2023/12/11 00:38:59;;;;;;;9.52;1.90;;;;;;;9.79;51.85;99681.44;4953488;28;20558;-73
2023/12/11 00:41:27;;;;;;;8.82;2.25;;;;;;;9.80;52.00;99680.41;4977268;28;20126;-73
2023/12/11 00:43:55;;;;;;;9.65;2.40;;;;;;;9.80;52.18;99688.63;4965302;28;20049;-73
2023/12/11 00:46:24;;;;;;;9.35;2.03;;;;;;;9.81;51.75;99682.13;4989857;28;20428;-73
2023/12/11 00:48:52;;;;;;;8.10;2.75;;;;;;;9.81;51.63;99675.81;4972400;28;20082;-74
2023/12/11 00:51:22;;;;;;;8.63;3.08;;;;;;;9.82;51.55;99681.09;4983394;28;20137;-73
2023/12/11 00:53:50;;;;;;;7.85;2.35;;;;;;;9.80;51.60;99688.63;4982674;28;20053;-73
2023/12/11 00:56:18;;;;;;;8.23;2.13;;;;;;;9.81;51.94;99678.53;4973907;28;20106;-73
2023/12/11 00:58:46;;;;;;;8.68;2.70;;;;;;;9.81;51.89;99675.81;4978637;28;20550;-73
2023/12/11 01:01:14;;;;;;;6.38;2.00;;;;;;;9.81;51.96;99673.09;4979441;28;20035;-73
2023/12/11 01:03:42;;;;;;;8.68;2.33;;;;;;;9.81;52.14;99692.22;4978477;28;20125;-73
2023/12/11 01:06:10;;;;;;;8.77;2.35;;;;;;;9.81;51.66;99675.81;4985271;28;20546;-73
2023/12/11 01:08:40;;;;;;;6.75;1.98;;;;;;;9.82;51.86;99683.00;4974069;28;20058;-73
2023/12/11 01:11:08;;;;;;;10.45;2.40;;;;;;;9.81;51.89;99687.59;4986701;28;20082;-73
2023/12/11 01:13:37;;;;;;;12.23;2.38;;;;;;;9.80;51.48;99679.56;4971991;28;20050;-73
2023/12/11 01:16:06;;;;;;;9.73;2.85;;;;;;;9.79;51.42;99678.69;4980416;28;20046;-73
2023/12/11 01:18:34;;;;;;;8.38;2.30;;;;;;;9.79;51.67;99675.97;4985667;28;20590;-73
2023/12/11 01:21:03;;;;;;;9.00;2.22;;;;;;;9.78;51.51;99679.72;4978497;28;20039;-73
2023/12/11 01:23:31;;;;;;;7.70;2.38;;;;;;;9.79;51.94;99686.03;4980803;28;20043;-72
2023/12/11 01:26:00;;;;;;;9.88;2.22;;;;;;;9.79;51.47;99686.91;4978237;28;20046;-73
2023/12/11 01:28:28;;;;;;;10.15;2.63;;;;;;;9.78;51.72;99681.59;4977652;28;20046;-73
2023/12/11 01:30:56;;;;;;;7.88;2.70;;;;;;;9.77;51.93;99682.59;4976180;28;20050;-73
2023/12/11 01:33:24;;;;;;;10.15;2.47;;;;;;;9.78;51.92;99676.13;4980994;28;20050;-73
2023/12/11 01:35:52;;;;;;;8.85;2.00;;;;;;;9.77;51.63;99678.00;4973317;28;20360;-73
2023/12/11 01:38:20;;;;;;;9.48;2.67;;;;;;;9.78;51.88;99681.59;4984100;28;20046;-73
2023/12/11 01:40:48;;;;;;;8.20;1.70;;;;;;;9.78;52.03;99670.66;4972340;28;20105;-73
2023/12/11 01:43:19;;;;;;;7.25;2.35;;;;;;;9.80;51.76;99658.56;4982103;28;20134;-73
2023/12/11 01:45:58;;;;;;;6.80;2.10;;;;;;;9.80;51.87;99674.97;4971660;28;20504;-73
2023/12/11 01:48:26;;;;;;;8.20;2.15;;;;;;;9.78;52.12;99676.13;4974336;28;20492;-73
2023/12/11 01:50:54;;;;;;;10.07;2.22;;;;;;;9.80;51.92;99680.41;4979939;28;20042;-73
2023/12/11 01:53:23;;;;;;;8.60;2.15;;;;;;;9.81;51.51;99673.94;4980730;28;20495;-73
2023/12/11 01:55:51;;;;;;;10.80;3.55;;;;;;;9.81;51.37;99668.47;4978606;28;20104;-73
2023/12/11 01:58:22;;;;;;;9.75;2.30;;;;;;;9.84;51.68;99676.34;4963992;28;20038;-73
2023/12/11 02:00:50;;;;;;;7.72;2.00;;;;;;;9.83;51.32;99679.22;4980480;28;20458;-73
2023/12/11 02:03:19;;;;;;;9.50;2.30;;;;;;;9.84;51.32;99678.22;4983123;28;20415;-73
2023/12/11 02:05:47;;;;;;;7.20;2.28;;;;;;;9.83;51.46;99674.63;4981306;28;20046;-73
2023/12/11 02:08:16;;;;;;;11.20;2.30;;;;;;;9.84;51.15;99656.34;4977268;28;20066;-73
2023/12/11 02:10:45;;;;;;;11.10;2.60;;;;;;;9.84;51.39;99659.09;4971186;28;20066;-73
2023/12/11 02:13:13;;;;;;;9.13;2.20;;;;;;;9.83;51.10;99655.50;4974439;28;20556;-73
2023/12/11 02:15:43;;;;;;;10.45;2.50;;;;;;;9.85;51.37;99663.53;4975317;28;20574;-73
2023/12/11 02:18:14;;;;;;;8.35;2.15;;;;;;;9.84;51.46;99659.09;4973271;28;20125;-73
2023/12/11 02:20:43;;;;;;;8.20;2.40;;;;;;;9.84;51.47;99649.00;4978387;28;20073;-73
2023/12/11 02:23:16;;;;;;;9.85;2.30;;;;;;;9.85;51.37;99650.72;4973497;28;20116;-73
2023/12/11 02:25:49;;;;;;;10.65;2.40;;;;;;;9.84;51.31;99648.16;4972789;28;20053;-73
2023/12/11 02:28:18;;;;;;;;;;;;;;;9.59;51.92;99658.03;4979680;28;20054;-73
2023/12/11 02:30:51;;;;;;;8.88;1.92;;;;;;;9.83;51.03;99646.44;4967411;28;20445;-73
2023/12/11 02:33:19;;;;;;;8.60;2.20;;;;;;;9.83;51.12;99630.03;4967482;28;20116;-72
2023/12/11 02:35:47;;;;;;;9.75;2.10;;;;;;;9.84;51.56;99621.69;4953289;28;20488;-73
2023/12/11 02:38:15;;;;;;;9.07;2.38;;;;;;;9.84;50.84;99638.09;4979176;28;20090;-72
2023/12/11 02:40:43;;;;;;;9.55;2.65;;;;;;;9.84;51.29;99626.28;4984476;28;20078;-72
2023/12/11 02:43:11;;;;;;;8.50;2.40;;;;;;;9.86;50.76;99629.72;4965622;28;20511;-72
2023/12/11 02:45:42;;;;;;;9.32;2.17;;;;;;;9.89;51.07;99628.56;4976817;28;20619;-73
2023/12/11 02:48:11;;;;;;;8.77;2.03;;;;;;;9.88;51.28;99632.31;4966308;28;20046;-72
2023/12/11 02:50:39;;;;;;;9.63;2.15;;;;;;;9.89;51.12;99625.84;4989951;28;20042;-73
2023/12/11 02:53:09;;;;;;;9.70;2.38;;;;;;;9.91;50.73;99623.78;4958390;28;20579;-72
2023/12/11 02:55:37;;;;;;;9.80;2.17;;;;;;;9.90;50.74;99619.34;4980565;28;20049;-73
2023/12/11 02:58:05;;;;;;;7.65;1.90;;;;;;;9.89;50.73;99612.16;4984094;28;20454;-72
2023/12/11 03:00:33;;;;;;;6.50;2.00;;;;;;;9.90;50.78;99609.28;4975037;28;20599;-72
2023/12/11 03:03:03;;;;;;;9.25;2.00;;;;;;;9.93;50.63;99608.06;4962106;28;20060;-72
2023/12/11 03:05:32;;;;;;;9.77;2.13;;;;;;;9.90;50.84;99609.28;4970003;28;20046;-73
2023/12/11 03:08:02;;;;;;;11.60;2.67;;;;;;;9.90;50.50;99595.63;4974346;28;20050;-73
2023/12/11 03:10:30;;;;;;;9.45;2.20;;;;;;;9.90;50.46;99601.09;4988501;28;20093;-73
2023/12/11 03:12:58;;;;;;;8.20;2.15;;;;;;;9.90;50.31;99587.41;4982274;28;20046;-73
2023/12/11 03:15:26;;;;;;;11.95;2.53;;;;;;;9.90;50.63;99590.16;4968267;28;20138;-73
2023/12/11 03:17:54;;;;;;;7.97;2.20;;;;;;;9.90;50.71;99589.28;4966300;28;20070;-73
2023/12/11 03:20:24;;;;;;;6.40;1.80;;;;;;;9.91;50.51;99569.97;4984634;28;20623;-73
2023/12/11 03:22:52;;;;;;;9.38;2.05;;;;;;;9.90;50.64;99573.75;4977421;28;20138;-73
2023/12/11 03:25:20;;;;;;;7.03;2.20;;;;;;;9.90;50.32;99568.28;4988394;28;20121;-73
2023/12/11 03:27:48;;;;;;;9.43;2.10;;;;;;;9.91;50.11;99571.84;4983155;28;20049;-72
2023/12/11 03:30:17;;;;;;;9.55;2.28;;;;;;;9.91;50.53;99558.19;4974183;28;20504;-73
2023/12/11 03:32:45;;;;;;;9.40;2.28;;;;;;;9.90;50.56;99554.63;4985692;28;20136;-73
2023/12/11 03:35:12;;;;;;;9.75;2.25;;;;;;;9.91;50.29;99572.69;4985145;28;20047;-73
2023/12/11 03:37:42;;;;;;;7.28;1.90;;;;;;;9.93;50.11;99558.88;4974156;28;20042;-73
2023/12/11 03:40:11;;;;;;;8.40;1.98;;;;;;;9.92;50.49;99552.56;4974343;28;20092;-73
2023/12/11 03:42:39;;;;;;;6.32;1.58;;;;;;;9.91;50.08;99548.09;4983313;28;20081;-72
2023/12/11 03:45:07;;;;;;;9.43;2.15;;;;;;;9.91;50.19;99539.91;4981281;28;20069;-73
2023/12/11 03:47:35;;;;;;;9.18;2.05;;;;;;;9.93;50.22;99546.06;4980953;28;20038;-73
2023/12/11 03:50:04;;;;;;;7.70;2.25;;;;;;;9.94;50.09;99545.06;4974411;28;20043;-73
2023/12/11 03:52:32;;;;;;;9.80;2.40;;;;;;;9.94;50.14;99544.19;4989043;28;20450;-73
2023/12/11 03:55:02;;;;;;;6.93;1.92;;;;;;;9.96;50.06;99540.31;4986280;28;20105;-73
2023/12/11 03:57:30;;;;;;;10.20;2.40;;;;;;;9.96;49.91;99548.50;4960452;28;20264;-73
2023/12/11 03:59:58;;;;;;;8.48;2.22;;;;;;;9.97;50.26;99527.50;4973778;28;20038;-73
2023/12/11 04:02:26;;;;;;;10.45;2.30;;;;;;;9.98;50.04;99538.28;4985817;28;20607;-73
2023/12/11 04:04:55;;;;;;;7.13;2.17;;;;;;;10.00;49.75;99528.00;4959819;28;20415;-73
2023/12/11 04:07:23;;;;;;;9.80;2.22;;;;;;;10.01;49.66;99529.72;4983405;28;20420;-73
2023/12/11 04:09:51;;;;;;;10.25;2.42;;;;;;;10.02;50.17;99533.31;4986295;28;20054;-73
2023/12/11 04:12:20;;;;;;;9.77;1.92;;;;;;;10.04;50.05;99532.13;4968662;28;20113;-73
2023/12/11 04:14:48;;;;;;;7.07;2.00;;;;;;;10.04;50.12;99526.69;4976306;28;20416;-73
2023/12/11 04:17:16;;;;;;;6.63;1.95;;;;;;;10.06;50.14;99513.72;4976239;28;20716;-73
2023/12/11 04:19:44;;;;;;;8.82;2.20;;;;;;;10.06;49.87;99521.91;4980636;28;20041;-73
2023/12/11 04:22:12;;;;;;;6.90;2.63;;;;;;;10.07;49.90;99507.19;4977399;28;20049;-72
2023/12/11 04:24:40;;;;;;;7.45;2.85;;;;;;;10.09;49.84;99509.78;4961299;28;20050;-72
2023/12/11 04:27:08;;;;;;;7.32;2.28;;;;;;;10.08;49.93;99508.06;4987143;28;20134;-74
2023/12/11 04:29:38;;;;;;;9.45;2.55;;;;;;;10.10;49.83;99506.88;4978285;28;20500;-74
2023/12/11 04:32:06;;;;;;;9.88;2.38;;;;;;;10.10;50.03;99503.28;4980429;28;20042;-73
2023/12/11 04:34:34;;;;;;;10.65;2.47;;;;;;;10.10;50.21;99503.28;4966837;28;20069;-74
2023/12/11 04:37:02;;;;;;;8.30;2.15;;;;;;;10.10;49.98;99512.34;4978005;28;20393;-73
2023/12/11 04:39:30;;;;;;;7.72;2.10;;;;;;;10.10;50.24;99508.75;4965560;28;20124;-74
2023/12/11 04:41:58;;;;;;;6.10;2.10;;;;;;;10.09;50.18;99505.16;4976645;28;20039;-74
2023/12/11 04:44:26;;;;;;;7.50;1.83;;;;;;;10.09;49.99;99509.78;4983448;28;20043;-75
2023/12/11 04:46:56;;;;;;;6.75;1.80;;;;;;;10.09;50.36;99502.44;4972882;28;20043;-74
2023/12/11 04:49:24;;;;;;;8.30;1.88;;;;;;;10.07;50.27;99507.19;4981109;28;20556;-75
2023/12/11 04:51:52;;;;;;;8.63;2.30;;;;;;;10.07;50.26;99512.66;4973600;28;20520;-74
2023/12/11 04:54:20;;;;;;;7.18;1.75;;;;;;;10.06;49.88;99508.25;4958103;28;20431;-74
2023/12/11 04:56:48;;;;;;;9.55;2.38;;;;;;;10.06;49.98;99507.38;4981744;28;20104;-74
2023/12/11 04:59:16;;;;;;;7.00;1.95;;;;;;;10.04;50.22;99488.41;4982653;28;20093;-74
2023/12/11 05:01:44;;;;;;;7.32;1.90;;;;;;;10.03;50.16;99503.09;4980898;28;20077;-74
2023/12/11 05:04:14;;;;;;;9.95;2.30;;;;;;;10.04;50.51;99510.28;4990965;28;20061;-75
2023/12/11 05:06:43;;;;;;;6.60;2.15;;;;;;;10.02;50.00;99509.56;4957505;28;20125;-73
2023/12/11 05:09:11;;;;;;;6.00;1.83;;;;;;;10.00;50.04;99510.75;4984512;28;20393;-73
2023/12/11 05:11:39;;;;;;;7.78;2.15;;;;;;;9.98;50.27;99499.16;4979479;28;20039;-73
2023/12/11 05:14:07;;;;;;;7.78;1.80;;;;;;;9.97;50.35;99522.03;4970740;28;20047;-73
2023/12/11 05:16:35;;;;;;;7.88;1.80;;;;;;;9.95;50.40;99505.78;4986303;28;20039;-73
2023/12/11 05:19:05;;;;;;;7.20;2.00;;;;;;;9.94;50.29;99516.88;4974461;28;20074;-73
2023/12/11 05:21:35;;;;;;;8.32;1.80;;;;;;;9.94;50.97;99514.13;4971279;28;20039;-73
2023/12/11 05:24:03;;;;;;;6.78;2.10;;;;;;;9.88;50.76;99512.94;4962244;28;20142;-74
2023/12/11 05:26:31;;;;;;;6.25;1.55;;;;;;;9.88;50.50;99495.66;4977297;28;20045;-73
2023/12/11 05:29:00;;;;;;;6.22;1.60;;;;;;;9.85;50.96;99503.16;4964728;28;20183;-74
2023/12/11 05:31:28;;;;;;;6.88;1.70;;;;;;;9.84;50.66;99504.19;4974016;28;20042;-74
2023/12/11 05:33:56;;;;;;;6.82;2.28;;;;;;;9.83;51.16;99494.28;4968728;28;20530;-73
2023/12/11 05:36:24;;;;;;;7.78;1.80;;;;;;;9.81;50.77;99496.34;4969896;28;20447;-73
2023/12/11 05:38:54;;;;;;;5.82;1.67;;;;;;;9.81;51.11;99490.00;4965436;28;20562;-72
2023/12/11 05:41:22;;;;;;;8.40;2.00;;;;;;;9.79;51.20;99490.16;4974806;28;20035;-73
2023/12/11 05:43:50;;;;;;;6.93;1.90;;;;;;;9.79;50.71;99497.50;4976409;28;20053;-73
2023/12/11 05:46:18;;;;;;;6.43;2.03;;;;;;;9.76;50.61;99495.94;4978304;28;20220;-73
2023/12/11 05:48:46;;;;;;;5.55;1.70;;;;;;;9.76;50.51;99476.81;4980065;28;20137;-73
2023/12/11 05:51:14;;;;;;;7.30;1.90;;;;;;;9.76;50.92;99476.81;4956709;28;20061;-73
2023/12/11 05:53:42;;;;;;;6.78;2.05;;;;;;;9.76;50.80;99473.22;4981258;28;20100;-73
2023/12/11 05:56:11;;;;;;;6.15;1.73;;;;;;;9.76;50.67;99489.63;4978174;28;20050;-72
2023/12/11 05:58:39;;;;;;;7.35;1.80;;;;;;;9.73;50.57;99490.81;4974281;28;20042;-73
2023/12/11 06:01:07;;;;;;;6.05;1.50;;;;;;;9.73;50.99;99481.78;4956737;28;20038;-72
2023/12/11 06:03:36;;;;;;;4.50;1.55;;;;;;;9.71;50.39;99483.78;4958309;28;20047;-72
2023/12/11 06:06:04;;;;;;;4.93;1.23;;;;;;;9.71;50.59;99483.78;4980448;28;20126;-73
2023/12/11 06:08:32;;;;;;;4.75;1.50;;;;;;;9.69;50.65;99481.22;4976758;28;20050;-72
2023/12/11 06:11:00;;;;;;;4.53;1.30;;;;;;;9.69;50.60;99485.81;4983044;28;20101;-73
2023/12/11 06:13:30;;;;;;;5.80;1.65;;;;;;;9.69;50.36;99474.91;4976401;28;20073;-73
2023/12/11 06:15:57;;;;;;;5.18;1.30;;;;;;;9.68;50.74;99486.84;4989117;28;20130;-74
2023/12/11 06:18:25;;;;;;;5.25;1.40;;;;;;;9.65;51.10;99477.13;4980439;28;20038;-74
2023/12/11 06:20:54;;;;;;;6.85;1.67;;;;;;;9.65;50.57;99487.19;4979686;23;20043;-72
2023/12/11 06:23:23;;;;;;;7.50;1.70;;;;;;;9.65;51.08;99485.31;4934049;29;20496;-73
2023/12/11 06:25:51;;;;;;;5.82;2.25;;;;;;;9.63;50.85;99484.63;4946948;28;20516;-74
2023/12/11 06:28:19;;;;;;;4.82;1.48;;;;;;;9.63;50.70;99486.47;4946978;29;20474;-74
2023/12/11 06:30:49;;;;;;;6.93;1.77;;;;;;;9.64;51.11;99483.59;4931616;29;20143;-74
2023/12/11 06:33:17;;;;;;;6.75;1.75;;;;;;;9.63;50.95;99481.88;4915121;29;20047;-73
2023/12/11 06:35:45;;;;;;;5.13;2.10;;;;;;;9.62;51.31;99487.50;4914525;29;20552;-74
2023/12/11 06:38:13;;;;;;;10.63;2.33;;;;;;;9.62;50.87;99495.69;4914838;29;20048;-74
2023/12/11 06:40:42;;;;;;;6.43;1.85;;;;;;;9.63;51.16;99484.63;4913956;29;20099;-74
2023/12/11 06:43:10;;;;;;;5.88;1.60;;;;;;;9.63;51.14;99492.81;4912818;29;20549;-74
2023/12/11 06:45:38;;;;;;;6.53;1.63;;;;;;;9.63;50.89;99479.16;4912699;29;20096;-74
2023/12/11 06:48:08;;;;;;;7.15;1.70;;;;;;;9.65;50.81;99490.78;4895422;29;20051;-74
2023/12/11 06:50:36;;;;;;;7.93;1.70;;;;;;;9.64;51.16;99491.78;4912870;29;20528;-73
2023/12/11 06:53:04;;;;;;;5.40;1.98;;;;;;;9.64;50.96;99486.34;4906512;29;20422;-73
2023/12/11 06:55:32;;;;;;;6.70;1.50;;;;;;;9.66;51.03;99483.44;4931891;29;20516;-73
2023/12/11 06:58:00;;;;;;;7.55;2.03;;;;;;;9.66;51.29;99491.63;4931412;29;20075;-73
2023/12/11 07:00:28;;;;;;;7.28;2.20;;;;;;;9.66;50.82;99497.94;4914116;29;20067;-73
2023/12/11 07:02:56;;;;;;;6.43;1.63;;;;;;;9.67;51.31;99488.72;4914637;29;20052;-74
2023/12/11 07:05:25;;;;;;;7.53;2.00;;;;;;;9.69;51.00;99478.50;4914645;29;20106;-74
2023/12/11 07:07:53;;;;;;;6.43;1.73;;;;;;;9.69;50.86;99486.69;4928611;29;20115;-75
2023/12/11 07:10:21;;;;;;;6.72;1.90;;;;;;;9.70;50.69;99480.22;4927814;29;20044;-74
2023/12/11 07:12:49;;;;;;;6.13;1.92;;;;;;;9.70;50.57;99493.88;4926247;29;20340;-74
2023/12/11 07:15:19;;;;;;;6.00;1.90;;;;;;;9.72;51.03;99494.56;4914804;29;20071;-74
2023/12/11 07:17:47;;;;;;;6.97;1.75;;;;;;;9.71;50.86;99487.38;4915050;29;20521;-75
2023/12/11 07:20:16;;;;;;;4.82;1.95;;;;;;;9.72;51.18;99494.56;4932429;29;20059;-74
2023/12/11 07:22:46;;;;;;;7.28;1.75;;;;;;;9.75;50.80;99487.91;4913867;29;20428;-74
2023/12/11 07:25:14;;;;;;;7.70;2.38;;;;;;;9.74;50.78;99484.31;4934395;29;20047;-75
2023/12/11 07:27:43;;;;;;;7.25;2.03;;;;;;;9.76;50.73;99486.88;4935380;29;20057;-75
2023/12/11 07:30:14;;;;;;;8.63;2.78;;;;;;;9.77;50.81;99481.25;4917521;29;20043;-74
2023/12/11 07:32:42;;;;;;;5.10;2.00;;;;;;;9.77;50.53;99494.06;4935375;29;20126;-75
2023/12/11 07:35:11;;;;;;;7.70;2.20;;;;;;;9.78;50.51;99487.59;4934795;29;20048;-75
2023/12/11 07:37:41;;;;;;;6.63;1.90;;;;;;;9.79;50.31;99502.97;4934908;29;20043;-74
2023/12/11 07:40:12;;;;;;;6.53;2.10;;;;;;;9.80;50.71;99491.88;4917313;29;20448;-74
2023/12/11 07:42:40;;;;;;;10.18;1.98;;;;;;;9.79;50.61;99495.63;4934741;29;20055;-74
2023/12/11 07:45:09;;;;;;;6.75;1.77;;;;;;;9.80;50.59;99478.22;4949384;29;20130;-74
2023/12/11 07:47:37;;;;;;;6.50;1.80;;;;;;;9.82;50.63;99499.94;4935166;29;20390;-75
2023/12/11 07:50:07;;;;;;;6.85;2.08;;;;;;;9.83;50.68;99505.19;4934230;29;20055;-74
2023/12/11 07:52:35;;;;;;;7.45;2.28;;;;;;;9.85;50.12;99494.09;4934810;29;20063;-73
2023/12/11 07:55:03;;;;;;;8.30;2.25;;;;;;;9.85;50.46;99508.63;4917636;29;20048;-73
2023/12/11 07:57:32;;;;;;;7.22;1.75;;;;;;;9.87;50.69;99499.41;4934521;29;20056;-73
2023/12/11 08:00:01;;;;;;;6.18;1.73;;;;;;;9.87;50.37;99493.94;4933916;29;20047;-74
2023/12/11 08:02:35;;;;;;;7.07;1.80;;;;;;;9.89;50.62;99497.38;4934857;29;20051;-74
2023/12/11 08:05:03;;;;;;;5.43;1.65;;;;;;;9.89;50.55;99511.06;4934724;29;20043;-73
2023/12/11 08:07:32;;;;;;;7.55;1.88;;;;;;;9.91;50.11;99509.00;4934496;29;20048;-75
2023/12/11 08:10:00;;;;;;;8.68;2.50;;;;;;;9.91;50.17;99507.13;4933527;29;20596;-71
2023/12/11 08:12:28;;;;;;;7.03;1.70;;;;;;;9.92;50.55;99517.03;4934231;29;20416;-74
2023/12/11 08:14:58;;;;;;;6.88;1.98;;;;;;;9.94;49.87;99517.72;4934402;29;20047;-75
2023/12/11 08:17:26;;;;;;;7.28;1.90;;;;;;;9.93;50.12;99521.47;4917314;29;20055;-74
2023/12/11 08:19:54;;;;;;;6.07;1.70;;;;;;;9.95;50.47;99518.59;4916562;29;20052;-73
2023/12/11 08:22:22;;;;;;;5.85;1.88;;;;;;;9.96;50.32;99523.03;4916726;29;20520;-74
2023/12/11 08:24:50;;;;;;;6.43;2.10;;;;;;;9.97;50.42;99525.63;4948954;29;20048;-74
2023/12/11 08:27:18;;;;;;;6.97;1.67;;;;;;;9.97;50.01;99528.34;4934107;29;20087;-73
2023/12/11 08:29:47;;;;;;;5.20;1.60;;;;;;;9.97;49.92;99533.81;4928248;29;20506;-76
2023/12/11 08:32:16;;;;;;;10.07;2.33;;;;;;;10.00;49.83;99543.53;4929241;29;20043;-76
2023/12/11 08:34:44;;;;;;;9.40;2.10;;;;;;;10.00;49.84;99540.81;4919080;29;20063;-77
2023/12/11 08:37:13;;;;;;;5.32;1.95;;;;;;;10.00;49.78;99555.34;4934153;29;20115;-76
2023/12/11 08:39:41;;;;;;;9.32;2.00;;;;;;;10.01;50.03;99565.25;4915007;29;20127;-77
2023/12/11 08:42:09;;;;;;;6.93;1.70;;;;;;;10.01;49.91;99559.78;4937124;29;20063;-77
2023/12/11 08:44:37;;;;;;;6.05;1.75;;;;;;;10.01;50.37;99570.72;4918178;29;20107;-76
2023/12/11 08:47:05;;;;;;;8.50;2.00;;;;;;;10.01;50.43;99569.88;4934622;29;20047;-77
2023/12/11 08:49:34;;;;;;;6.45;1.90;;;;;;;10.01;50.53;99572.59;4932747;29;20512;-76
2023/12/11 08:52:03;;;;;;;6.45;2.20;;;;;;;9.99;50.63;99597.34;4933609;29;20409;-76
2023/12/11 08:54:31;;;;;;;6.97;1.70;;;;;;;9.99;50.82;99596.53;4949256;29;20416;-76
2023/12/11 08:57:01;;;;;;;7.57;2.03;;;;;;;9.99;50.78;99602.00;4919961;29;21137;-77
2023/12/11 08:59:30;;;;;;;5.97;1.65;;;;;;;9.99;50.47;99593.78;4915761;29;20063;-76
2023/12/11 09:01:59;;;;;;;4.63;1.60;;;;;;;9.97;50.77;99591.22;4916262;29;20170;-77
2023/12/11 09:04:27;;;;;;;6.97;1.83;;;;;;;9.98;50.59;99603.00;4923905;29;20512;-76
2023/12/11 09:06:56;;;;;;;8.15;2.08;;;;;;;10.00;50.50;99599.06;4921299;29;20311;-76
2023/12/11 09:09:24;;;;;;;7.38;1.67;;;;;;;9.97;50.51;99607.63;4917570;29;20489;-76
2023/12/11 09:11:53;;;;;;;6.95;1.75;;;;;;;9.96;50.33;99605.03;4948014;28;20551;-76
2023/12/11 09:14:21;;;;;;;8.25;2.53;;;;;;;9.98;50.42;99613.94;4933246;29;20493;-76
2023/12/11 09:16:49;;;;;;;8.15;1.58;;;;;;;9.97;50.62;99621.28;4933035;29;20067;-76
2023/12/11 09:19:17;;;;;;;6.85;1.80;;;;;;;9.95;50.61;99627.91;4930988;29;20556;-77
2023/12/11 09:21:50;;;;;;;7.63;2.10;;;;;;;9.94;51.04;99637.13;4916381;29;20044;-76
2023/12/11 09:24:19;;;;;;;4.72;1.60;;;;;;;9.95;51.12;99639.72;4916113;29;20047;-76
2023/12/11 09:26:48;;;;;;;6.70;1.83;;;;;;;9.94;50.75;99645.31;4911010;29;20086;-77
2023/12/11 09:29:16;;;;;;;5.60;1.55;;;;;;;9.92;50.85;99648.22;4913427;29;20047;-77
2023/12/11 09:31:45;;;;;;;6.40;1.65;;;;;;;9.91;51.18;99651.97;4910715;29;20052;-78
2023/12/11 09:34:13;;;;;;;5.93;1.80;;;;;;;9.90;51.29;99654.88;4915064;29;20075;-78
2023/12/11 09:36:41;;;;;;;5.68;1.63;;;;;;;9.90;51.32;99654.88;4914480;29;20054;-77
2023/12/11 09:39:10;;;;;;;6.03;2.03;;;;;;;9.90;51.25;99666.66;4930092;29;20051;-77
2023/12/11 09:41:40;;;;;;;5.68;1.88;;;;;;;9.90;51.50;99661.19;4915427;29;20596;-77
2023/12/11 09:44:10;;;;;;;8.60;2.08;;;;;;;9.90;51.29;99671.28;4911714;29;20058;-76
2023/12/11 09:46:45;;;;;;;7.10;1.98;;;;;;;9.90;51.06;99679.47;4930834;29;20492;-77
2023/12/11 09:49:13;;;;;;;7.20;1.95;;;;;;;9.87;51.43;99679.78;4928240;29;20047;-77
2023/12/11 09:51:42;;;;;;;6.35;1.65;;;;;;;9.89;51.51;99684.06;4914370;29;20066;-77
2023/12/11 09:54:10;;;;;;;9.15;2.47;;;;;;;9.89;50.99;99685.94;4917223;29;20130;-77
2023/12/11 09:56:40;;;;;;;6.35;1.85;;;;;;;9.91;51.26;99679.28;4943941;29;20047;-77
2023/12/11 09:59:10;;;;;;;5.65;1.52;;;;;;;9.90;51.15;99683.06;4929770;29;20139;-78
2023/12/11 10:01:38;;;;;;;8.02;2.13;;;;;;;9.88;51.08;99679.63;4911211;29;20122;-78
2023/12/11 10:04:07;;;;;;;8.45;2.20;;;;;;;9.90;51.32;99680.34;4931164;29;20051;-77
2023/12/11 10:06:35;;;;;;;8.02;2.05;;;;;;;9.90;51.45;99683.06;4914670;29;20050;-78
2023/12/11 10:09:04;;;;;;;6.20;1.77;;;;;;;9.89;51.32;99686.81;4913761;29;20059;-78
2023/12/11 10:11:33;;;;;;;8.43;2.17;;;;;;;9.89;51.22;99680.50;4916542;29;20151;-77
2023/12/11 10:14:12;;;;;;;6.80;2.15;;;;;;;9.92;51.38;99700.13;4929841;29;20532;-78
2023/12/11 10:16:40;;;;;;;7.35;2.20;;;;;;;9.86;51.51;99711.72;4943679;28;20040;-77
2023/12/11 10:19:08;;;;;;;9.00;2.38;;;;;;;9.87;51.85;99710.69;4929656;29;20531;-78
2023/12/11 10:21:39;;;;;;;6.18;1.83;;;;;;;9.91;51.43;99716.69;4914460;29;20517;-78
2023/12/11 10:24:11;;;;;;;7.38;1.92;;;;;;;9.91;51.87;99713.97;4912902;29;20130;-78
2023/12/11 10:26:44;;;;;;;7.55;2.28;;;;;;;9.91;51.28;99724.88;4930334;29;20066;-77
2023/12/11 10:29:21;;;;;;;5.55;2.13;;;;;;;9.92;51.53;99722.00;4928368;29;20051;-78
2023/12/11 10:31:50;;;;;;;7.25;2.28;;;;;;;9.89;51.40;99685.94;4930735;29;20497;-75
2023/12/11 10:34:18;;;;;;;6.93;2.10;;;;;;;9.91;51.84;99714.81;4914327;29;20130;-76
2023/12/11 10:36:50;;;;;;;5.53;1.83;;;;;;;9.93;51.34;99718.25;4914857;29;20047;-75
2023/12/11 10:39:19;;;;;;;6.27;2.20;;;;;;;9.92;51.69;99734.81;4931444;29;20044;-75
2023/12/11 10:41:49;;;;;;;6.40;1.63;;;;;;;9.94;51.92;99730.06;4928591;29;20126;-76
2023/12/11 10:44:26;;;;;;;5.60;1.80;;;;;;;9.99;51.72;99734.00;4914640;29;20135;-76
2023/12/11 10:47:14;;;;;;;6.22;1.70;;;;;;;9.97;51.56;99729.75;4914648;29;20126;-75
2023/12/11 10:49:43;;;;;;;6.57;1.90;;;;;;;10.00;51.96;99730.28;4913695;29;20047;-75
2023/12/11 10:52:11;;;;;;;6.53;1.75;;;;;;;10.04;51.46;99744.50;4906050;29;20507;-75
2023/12/11 10:54:41;;;;;;;5.50;1.50;;;;;;;10.06;51.43;99737.88;4930931;29;20054;-75
2023/12/11 10:57:14;;;;;;;5.57;1.58;;;;;;;10.10;51.16;99754.78;4914847;29;20047;-75
2023/12/11 10:59:44;;;;;;;;;;;;;;;9.85;52.14;99748.25;4936042;29;20501;-74
2023/12/11 11:02:16;;;;;;;6.53;1.75;;;;;;;10.10;51.60;99763.84;4935700;29;19923;-74
2023/12/11 11:04:46;;;;;;;6.65;1.55;;;;;;;10.15;51.17;99760.66;4918072;29;20058;-74
2023/12/11 11:07:26;;;;;;;4.40;1.48;;;;;;;10.21;50.83;99762.75;4935074;29;20079;-73
2023/12/11 11:10:01;;;;;;;6.97;1.92;;;;;;;10.19;51.19;99768.38;4935338;29;20075;-73
2023/12/11 11:12:39;;;;;;;8.23;2.30;;;;;;;10.21;50.84;99760.00;4899672;29;20051;-73
2023/12/11 11:15:10;;;;;;;4.88;2.53;;;;;;;10.21;51.72;99763.63;4909821;29;20564;-64
2023/12/11 11:17:57;;;;;;;9.32;3.17;;;;;;;10.22;51.68;99773.53;4920580;29;20468;-65
2023/12/11 11:20:25;;;;;;;6.68;2.60;;;;;;;10.23;51.46;99780.69;4915777;29;20063;-64
2023/12/11 11:23:19;;;;;;;6.43;2.92;;;;;;;10.28;52.02;99782.97;4931327;29;20067;-65
2023/12/11 11:25:51;;;;;;;9.73;3.28;;;;;;;10.30;51.99;99791.03;4909593;29;20043;-67
2023/12/11 11:28:37;;;;;;;5.28;2.10;;;;;;;10.34;51.33;99792.41;4927859;29;20056;-72
2023/12/11 11:31:08;;;;;;;6.90;2.03;;;;;;;10.40;51.76;99805.47;4917006;29;20409;-72
2023/12/11 11:33:52;;;;;;;5.50;1.85;;;;;;;10.46;51.28;99793.88;4934820;29;20170;-72
2023/12/11 11:36:21;;;;;;;3.95;1.50;;;;;;;10.47;51.62;99801.94;4949591;29;20532;-73
2023/12/11 11:38:54;;;;;;;7.63;1.90;;;;;;;10.55;51.21;99812.13;4934841;29;20474;-73
2023/12/11 11:41:27;;;;;;;4.88;2.05;;;;;;;10.56;50.94;99800.16;4917391;29;20517;-72
2023/12/11 11:44:04;;;;;;;6.25;1.98;;;;;;;10.62;51.12;99796.78;4917861;29;20555;-72
2023/12/11 11:46:54;;;;;;;5.35;1.60;;;;;;;10.63;50.73;99806.69;4913802;29;20418;-73
2023/12/11 11:49:33;;;;;;;6.43;1.48;;;;;;;10.70;50.85;99805.03;4916752;29;20047;-73